sensor_id;sensor_type;location;lat;lon;timestamp;P1;durP1;ratioP1;P2;durP2;ratioP2
70942;SDS011;59154;51.970;5.650;2023-01-28T00:00:03;6.7;;;4.7;;
70942;SDS011;59154;51.970;5.650;2023-01-28T00:05:03;6.1;;;4.2;;
70942;SDS011;59154;51.970;5.650;2023-01-28T00:10:03;7.1;;;4.5;;
70942;SDS011;59154;51.970;5.650;2023-01-28T00:15:02;6.7;;;4.5;;
70942;SDS011;59154;51.970;5.650;2023-01-28T00:20:03;5.8;;;4.3;;
70942;SDS011;59154;51.970;5.650;2023-01-28T00:25:02;7.2;;;5.6;;
70942;SDS011;59154;51.970;5.650;2023-01-28T00:30:03;6.3;;;4.2;;
70942;SDS011;59154;51.970;5.650;2023-01-28T00:35:02;6.6;;;4.9;;
70942;SDS011;59154;51.970;5.650;2023-01-28T00:40:03;7.4;;;5.3;;
70942;SDS011;59154;51.970;5.650;2023-01-28T00:45:03;7.9;;;5.4;;
70942;SDS011;59154;51.970;5.650;2023-01-28T00:50:03;6.6;;;4.9;;
70942;SDS011;59154;51.970;5.650;2023-01-28T00:55:02;7.8;;;5.7;;
70942;SDS011;59154;51.970;5.650;2023-01-28T01:00:04;7.0;;;4.7;;
70942;SDS011;59154;51.970;5.650;2023-01-28T01:05:02;8.1;;;5.1;;
70942;SDS011;59154;51.970;5.650;2023-01-28T01:10:02;7.1;;;5.2;;
70942;SDS011;59154;51.970;5.650;2023-01-28T01:15:02;6.6;;;4.5;;
70942;SDS011;59154;51.970;5.650;2023-01-28T01:20:03;7.1;;;4.9;;
70942;SDS011;59154;51.970;5.650;2023-01-28T01:25:03;7.3;;;5.3;;
70942;SDS011;59154;51.970;5.650;2023-01-28T01:30:02;7.6;;;5.3;;
70942;SDS011;59154;51.970;5.650;2023-01-28T01:35:03;9.2;;;5.3;;
70942;SDS011;59154;51.970;5.650;2023-01-28T01:40:03;6.5;;;5.1;;
70942;SDS011;59154;51.970;5.650;2023-01-28T01:45:03;8.5;;;5.2;;
70942;SDS011;59154;51.970;5.650;2023-01-28T01:50:06;7.3;;;5.2;;
70942;SDS011;59154;51.970;5.650;2023-01-28T01:55:04;6.9;;;5.0;;
70942;SDS011;59154;51.970;5.650;2023-01-28T02:00:03;8.2;;;5.3;;
70942;SDS011;59154;51.970;5.650;2023-01-28T02:05:02;6.9;;;5.1;;
70942;SDS011;59154;51.970;5.650;2023-01-28T02:10:03;7.6;;;4.6;;
70942;SDS011;59154;51.970;5.650;2023-01-28T02:15:03;7.5;;;5.1;;
70942;SDS011;59154;51.970;5.650;2023-01-28T02:20:04;8.1;;;5.4;;
70942;SDS011;59154;51.970;5.650;2023-01-28T02:25:07;7.8;;;5.2;;
70942;SDS011;59154;51.970;5.650;2023-01-28T02:30:05;8.2;;;5.2;;
70942;SDS011;59154;51.970;5.650;2023-01-28T02:35:04;8.8;;;5.7;;
70942;SDS011;59154;51.970;5.650;2023-01-28T02:40:05;8.0;;;5.5;;
70942;SDS011;59154;51.970;5.650;2023-01-28T02:45:03;8.7;;;4.9;;
70942;SDS011;59154;51.970;5.650;2023-01-28T02:50:03;7.5;;;5.3;;
70942;SDS011;59154;51.970;5.650;2023-01-28T02:55:04;6.6;;;4.5;;
70942;SDS011;59154;51.970;5.650;2023-01-28T03:00:05;7.9;;;5.5;;
70942;SDS011;59154;51.970;5.650;2023-01-28T03:05:03;8.2;;;5.1;;
70942;SDS011;59154;51.970;5.650;2023-01-28T03:10:04;7.9;;;5.1;;
70942;SDS011;59154;51.970;5.650;2023-01-28T03:15:02;7.3;;;4.9;;
70942;SDS011;59154;51.970;5.650;2023-01-28T03:20:03;7.3;;;4.8;;
70942;SDS011;59154;51.970;5.650;2023-01-28T03:25:03;7.5;;;4.9;;
70942;SDS011;59154;51.970;5.650;2023-01-28T03:30:04;6.9;;;4.6;;
70942;SDS011;59154;51.970;5.650;2023-01-28T03:35:03;7.8;;;4.6;;
70942;SDS011;59154;51.970;5.650;2023-01-28T03:40:03;7.6;;;5.5;;
70942;SDS011;59154;51.970;5.650;2023-01-28T03:45:03;6.6;;;4.4;;
70942;SDS011;59154;51.970;5.650;2023-01-28T03:50:03;7.5;;;5.3;;
70942;SDS011;59154;51.970;5.650;2023-01-28T03:55:02;8.0;;;5.5;;
70942;SDS011;59154;51.970;5.650;2023-01-28T04:00:03;6.7;;;4.6;;
70942;SDS011;59154;51.970;5.650;2023-01-28T04:05:02;6.9;;;5.0;;
70942;SDS011;59154;51.970;5.650;2023-01-28T04:10:02;7.2;;;5.0;;
70942;SDS011;59154;51.970;5.650;2023-01-28T04:15:03;7.7;;;5.7;;
70942;SDS011;59154;51.970;5.650;2023-01-28T04:20:02;6.9;;;4.9;;
70942;SDS011;59154;51.970;5.650;2023-01-28T04:25:02;7.0;;;4.9;;
70942;SDS011;59154;51.970;5.650;2023-01-28T04:30:03;9.5;;;5.6;;
70942;SDS011;59154;51.970;5.650;2023-01-28T04:35:02;7.5;;;5.3;;
70942;SDS011;59154;51.970;5.650;2023-01-28T04:40:03;8.1;;;5.3;;
70942;SDS011;59154;51.970;5.650;2023-01-28T04:45:02;7.2;;;5.4;;
70942;SDS011;59154;51.970;5.650;2023-01-28T04:50:02;7.4;;;5.2;;
70942;SDS011;59154;51.970;5.650;2023-01-28T04:55:03;8.2;;;4.9;;
70942;SDS011;59154;51.970;5.650;2023-01-28T05:00:03;7.6;;;5.3;;
70942;SDS011;59154;51.970;5.650;2023-01-28T05:05:02;7.8;;;5.4;;
70942;SDS011;59154;51.970;5.650;2023-01-28T05:10:03;7.8;;;5.2;;
70942;SDS011;59154;51.970;5.650;2023-01-28T05:15:02;7.4;;;5.4;;
70942;SDS011;59154;51.970;5.650;2023-01-28T05:20:03;7.9;;;5.5;;
70942;SDS011;59154;51.970;5.650;2023-01-28T05:25:02;8.5;;;5.6;;
70942;SDS011;59154;51.970;5.650;2023-01-28T05:30:03;7.0;;;5.1;;
70942;SDS011;59154;51.970;5.650;2023-01-28T05:35:02;8.1;;;5.4;;
70942;SDS011;59154;51.970;5.650;2023-01-28T05:40:03;6.5;;;5.0;;
70942;SDS011;59154;51.970;5.650;2023-01-28T05:45:02;9.5;;;5.9;;
70942;SDS011;59154;51.970;5.650;2023-01-28T05:50:02;7.5;;;5.3;;
70942;SDS011;59154;51.970;5.650;2023-01-28T05:55:02;8.2;;;5.4;;
70942;SDS011;59154;51.970;5.650;2023-01-28T06:00:03;7.8;;;5.6;;
70942;SDS011;59154;51.970;5.650;2023-01-28T06:05:03;8.7;;;5.6;;
70942;SDS011;59154;51.970;5.650;2023-01-28T06:10:02;7.4;;;5.0;;
70942;SDS011;59154;51.970;5.650;2023-01-28T06:15:02;7.9;;;5.4;;
70942;SDS011;59154;51.970;5.650;2023-01-28T06:20:04;7.9;;;5.7;;
70942;SDS011;59154;51.970;5.650;2023-01-28T06:25:02;8.6;;;6.0;;
70942;SDS011;59154;51.970;5.650;2023-01-28T06:30:02;8.1;;;5.4;;
70942;SDS011;59154;51.970;5.650;2023-01-28T06:35:03;7.9;;;5.8;;
70942;SDS011;59154;51.970;5.650;2023-01-28T06:40:03;7.7;;;5.3;;
70942;SDS011;59154;51.970;5.650;2023-01-28T06:45:02;8.8;;;5.3;;
70942;SDS011;59154;51.970;5.650;2023-01-28T06:50:03;7.0;;;5.2;;
70942;SDS011;59154;51.970;5.650;2023-01-28T06:55:02;8.3;;;5.5;;
70942;SDS011;59154;51.970;5.650;2023-01-28T07:00:03;7.0;;;5.1;;
70942;SDS011;59154;51.970;5.650;2023-01-28T07:05:02;7.7;;;5.0;;
70942;SDS011;59154;51.970;5.650;2023-01-28T07:10:04;7.7;;;5.2;;
70942;SDS011;59154;51.970;5.650;2023-01-28T07:15:02;8.5;;;6.0;;
70942;SDS011;59154;51.970;5.650;2023-01-28T07:20:03;7.9;;;5.5;;
70942;SDS011;59154;51.970;5.650;2023-01-28T07:25:02;9.1;;;5.2;;
70942;SDS011;59154;51.970;5.650;2023-01-28T07:30:03;8.1;;;5.3;;
70942;SDS011;59154;51.970;5.650;2023-01-28T07:35:03;7.9;;;5.7;;
70942;SDS011;59154;51.970;5.650;2023-01-28T07:40:03;7.3;;;4.8;;
70942;SDS011;59154;51.970;5.650;2023-01-28T07:45:02;7.6;;;5.6;;
70942;SDS011;59154;51.970;5.650;2023-01-28T07:50:03;7.2;;;5.2;;
70942;SDS011;59154;51.970;5.650;2023-01-28T07:55:03;7.4;;;5.1;;
70942;SDS011;59154;51.970;5.650;2023-01-28T08:00:03;7.1;;;5.4;;
70942;SDS011;59154;51.970;5.650;2023-01-28T08:05:02;7.1;;;5.4;;
70942;SDS011;59154;51.970;5.650;2023-01-28T08:10:02;7.1;;;4.8;;
70942;SDS011;59154;51.970;5.650;2023-01-28T08:15:02;8.4;;;6.1;;
70942;SDS011;59154;51.970;5.650;2023-01-28T08:20:04;7.7;;;5.2;;
70942;SDS011;59154;51.970;5.650;2023-01-28T08:25:03;7.5;;;5.3;;
70942;SDS011;59154;51.970;5.650;2023-01-28T08:30:03;7.3;;;5.3;;
70942;SDS011;59154;51.970;5.650;2023-01-28T08:35:02;8.4;;;5.3;;
70942;SDS011;59154;51.970;5.650;2023-01-28T08:40:04;7.6;;;5.2;;
70942;SDS011;59154;51.970;5.650;2023-01-28T08:45:03;8.2;;;5.9;;
70942;SDS011;59154;51.970;5.650;2023-01-28T08:50:03;7.3;;;5.5;;
70942;SDS011;59154;51.970;5.650;2023-01-28T08:55:02;7.7;;;5.4;;
70942;SDS011;59154;51.970;5.650;2023-01-28T09:00:03;7.8;;;5.5;;
70942;SDS011;59154;51.970;5.650;2023-01-28T09:05:03;7.4;;;5.4;;
70942;SDS011;59154;51.970;5.650;2023-01-28T09:10:04;8.9;;;6.1;;
70942;SDS011;59154;51.970;5.650;2023-01-28T09:15:03;8.0;;;5.3;;
70942;SDS011;59154;51.970;5.650;2023-01-28T09:20:04;8.7;;;5.5;;
70942;SDS011;59154;51.970;5.650;2023-01-28T09:25:02;8.4;;;5.3;;
70942;SDS011;59154;51.970;5.650;2023-01-28T09:30:04;8.0;;;5.8;;
70942;SDS011;59154;51.970;5.650;2023-01-28T09:35:03;7.9;;;5.3;;
70942;SDS011;59154;51.970;5.650;2023-01-28T09:40:03;7.9;;;5.3;;
70942;SDS011;59154;51.970;5.650;2023-01-28T09:45:04;7.8;;;5.2;;
70942;SDS011;59154;51.970;5.650;2023-01-28T09:50:04;6.8;;;4.9;;
70942;SDS011;59154;51.970;5.650;2023-01-28T09:55:04;8.8;;;5.8;;
70942;SDS011;59154;51.970;5.650;2023-01-28T10:00:07;7.3;;;5.0;;
70942;SDS011;59154;51.970;5.650;2023-01-28T10:05:04;7.6;;;4.8;;
70942;SDS011;59154;51.970;5.650;2023-01-28T10:10:05;7.7;;;4.7;;
70942;SDS011;59154;51.970;5.650;2023-01-28T10:15:08;6.8;;;4.5;;
70942;SDS011;59154;51.970;5.650;2023-01-28T10:20:04;6.2;;;4.9;;
70942;SDS011;59154;51.970;5.650;2023-01-28T10:25:02;5.5;;;3.9;;
70942;SDS011;59154;51.970;5.650;2023-01-28T10:30:14;5.8;;;4.2;;
70942;SDS011;59154;51.970;5.650;2023-01-28T10:35:02;6.5;;;4.0;;
70942;SDS011;59154;51.970;5.650;2023-01-28T10:40:04;6.5;;;3.9;;
70942;SDS011;59154;51.970;5.650;2023-01-28T10:45:04;5.9;;;3.9;;
70942;SDS011;59154;51.970;5.650;2023-01-28T10:50:02;8.0;;;4.2;;
70942;SDS011;59154;51.970;5.650;2023-01-28T10:55:03;5.4;;;3.9;;
70942;SDS011;59154;51.970;5.650;2023-01-28T11:00:16;5.9;;;3.8;;
70942;SDS011;59154;51.970;5.650;2023-01-28T11:05:03;6.0;;;3.6;;
70942;SDS011;59154;51.970;5.650;2023-01-28T11:10:20;5.8;;;4.2;;
70942;SDS011;59154;51.970;5.650;2023-01-28T11:15:03;5.9;;;3.4;;
70942;SDS011;59154;51.970;5.650;2023-01-28T11:20:08;4.6;;;3.3;;
70942;SDS011;59154;51.970;5.650;2023-01-28T11:25:03;5.0;;;2.8;;
70942;SDS011;59154;51.970;5.650;2023-01-28T11:30:02;5.0;;;3.2;;
70942;SDS011;59154;51.970;5.650;2023-01-28T11:35:02;4.9;;;3.3;;
70942;SDS011;59154;51.970;5.650;2023-01-28T11:40:08;5.1;;;3.4;;
70942;SDS011;59154;51.970;5.650;2023-01-28T11:45:02;4.9;;;3.0;;
70942;SDS011;59154;51.970;5.650;2023-01-28T11:50:06;5.5;;;2.9;;
70942;SDS011;59154;51.970;5.650;2023-01-28T11:55:06;5.0;;;3.4;;
70942;SDS011;59154;51.970;5.650;2023-01-28T12:00:11;6.3;;;2.9;;
70942;SDS011;59154;51.970;5.650;2023-01-28T12:05:07;4.1;;;3.0;;
70942;SDS011;59154;51.970;5.650;2023-01-28T12:10:05;5.3;;;2.7;;
70942;SDS011;59154;51.970;5.650;2023-01-28T12:15:08;4.7;;;3.0;;
70942;SDS011;59154;51.970;5.650;2023-01-28T12:20:06;4.4;;;2.6;;
70942;SDS011;59154;51.970;5.650;2023-01-28T12:25:05;4.1;;;2.6;;
70942;SDS011;59154;51.970;5.650;2023-01-28T12:30:05;4.3;;;2.5;;
70942;SDS011;59154;51.970;5.650;2023-01-28T12:35:09;3.4;;;2.3;;
70942;SDS011;59154;51.970;5.650;2023-01-28T12:40:07;5.8;;;2.9;;
70942;SDS011;59154;51.970;5.650;2023-01-28T12:45:03;4.3;;;2.7;;
70942;SDS011;59154;51.970;5.650;2023-01-28T12:50:03;3.8;;;2.3;;
70942;SDS011;59154;51.970;5.650;2023-01-28T12:55:03;4.5;;;2.7;;
70942;SDS011;59154;51.970;5.650;2023-01-28T13:00:05;4.5;;;2.8;;
70942;SDS011;59154;51.970;5.650;2023-01-28T13:05:03;3.5;;;2.4;;
70942;SDS011;59154;51.970;5.650;2023-01-28T13:10:03;4.4;;;2.8;;
70942;SDS011;59154;51.970;5.650;2023-01-28T13:15:02;4.6;;;3.3;;
70942;SDS011;59154;51.970;5.650;2023-01-28T13:20:12;5.7;;;3.1;;
70942;SDS011;59154;51.970;5.650;2023-01-28T13:25:18;3.9;;;2.7;;
70942;SDS011;59154;51.970;5.650;2023-01-28T13:30:04;5.4;;;3.4;;
70942;SDS011;59154;51.970;5.650;2023-01-28T13:35:03;4.7;;;2.9;;
70942;SDS011;59154;51.970;5.650;2023-01-28T13:40:06;4.6;;;3.3;;
70942;SDS011;59154;51.970;5.650;2023-01-28T13:45:19;4.4;;;2.9;;
70942;SDS011;59154;51.970;5.650;2023-01-28T13:50:03;3.3;;;2.4;;
70942;SDS011;59154;51.970;5.650;2023-01-28T13:55:03;5.1;;;3.2;;
70942;SDS011;59154;51.970;5.650;2023-01-28T14:00:04;4.8;;;2.9;;
70942;SDS011;59154;51.970;5.650;2023-01-28T14:05:21;3.7;;;2.5;;
70942;SDS011;59154;51.970;5.650;2023-01-28T14:10:07;5.0;;;3.1;;
70942;SDS011;59154;51.970;5.650;2023-01-28T14:15:08;5.2;;;2.9;;
70942;SDS011;59154;51.970;5.650;2023-01-28T14:20:03;4.2;;;2.6;;
70942;SDS011;59154;51.970;5.650;2023-01-28T14:25:02;5.5;;;3.9;;
70942;SDS011;59154;51.970;5.650;2023-01-28T14:30:04;6.5;;;4.9;;
70942;SDS011;59154;51.970;5.650;2023-01-28T14:35:04;6.1;;;3.9;;
70942;SDS011;59154;51.970;5.650;2023-01-28T14:40:04;6.0;;;3.7;;
70942;SDS011;59154;51.970;5.650;2023-01-28T14:45:06;5.7;;;3.8;;
70942;SDS011;59154;51.970;5.650;2023-01-28T14:50:08;5.3;;;3.6;;
70942;SDS011;59154;51.970;5.650;2023-01-28T14:55:03;7.6;;;4.3;;
70942;SDS011;59154;51.970;5.650;2023-01-28T15:00:13;5.7;;;3.5;;
70942;SDS011;59154;51.970;5.650;2023-01-28T15:05:07;6.9;;;3.7;;
70942;SDS011;59154;51.970;5.650;2023-01-28T15:10:03;5.8;;;3.8;;
70942;SDS011;59154;51.970;5.650;2023-01-28T15:15:09;8.5;;;5.0;;
70942;SDS011;59154;51.970;5.650;2023-01-28T15:20:02;5.2;;;3.8;;
70942;SDS011;59154;51.970;5.650;2023-01-28T15:25:02;5.7;;;3.6;;
70942;SDS011;59154;51.970;5.650;2023-01-28T15:30:02;6.0;;;4.2;;
70942;SDS011;59154;51.970;5.650;2023-01-28T15:35:02;6.4;;;4.0;;
70942;SDS011;59154;51.970;5.650;2023-01-28T15:40:04;6.7;;;4.4;;
70942;SDS011;59154;51.970;5.650;2023-01-28T15:45:02;5.3;;;3.7;;
70942;SDS011;59154;51.970;5.650;2023-01-28T15:50:03;7.6;;;4.3;;
70942;SDS011;59154;51.970;5.650;2023-01-28T15:55:03;6.2;;;4.4;;
70942;SDS011;59154;51.970;5.650;2023-01-28T16:00:11;8.8;;;4.9;;
70942;SDS011;59154;51.970;5.650;2023-01-28T16:05:03;7.9;;;4.0;;
70942;SDS011;59154;51.970;5.650;2023-01-28T16:10:03;7.0;;;4.6;;
70942;SDS011;59154;51.970;5.650;2023-01-28T16:15:02;8.2;;;5.1;;
70942;SDS011;59154;51.970;5.650;2023-01-28T16:20:03;6.3;;;4.4;;
70942;SDS011;59154;51.970;5.650;2023-01-28T16:25:02;9.7;;;5.0;;
70942;SDS011;59154;51.970;5.650;2023-01-28T16:30:03;6.4;;;4.8;;
70942;SDS011;59154;51.970;5.650;2023-01-28T16:35:03;10.1;;;5.6;;
70942;SDS011;59154;51.970;5.650;2023-01-28T16:40:03;10.2;;;5.9;;
70942;SDS011;59154;51.970;5.650;2023-01-28T16:45:02;9.1;;;6.6;;
70942;SDS011;59154;51.970;5.650;2023-01-28T16:50:03;9.4;;;6.2;;
70942;SDS011;59154;51.970;5.650;2023-01-28T16:55:03;8.8;;;5.9;;
70942;SDS011;59154;51.970;5.650;2023-01-28T17:00:03;10.0;;;6.1;;
70942;SDS011;59154;51.970;5.650;2023-01-28T17:05:02;8.7;;;6.1;;
70942;SDS011;59154;51.970;5.650;2023-01-28T17:10:02;10.1;;;6.5;;
70942;SDS011;59154;51.970;5.650;2023-01-28T17:15:02;11.3;;;6.1;;
70942;SDS011;59154;51.970;5.650;2023-01-28T17:20:03;9.5;;;5.6;;
70942;SDS011;59154;51.970;5.650;2023-01-28T17:25:02;7.9;;;5.2;;
70942;SDS011;59154;51.970;5.650;2023-01-28T17:30:03;7.0;;;5.5;;
70942;SDS011;59154;51.970;5.650;2023-01-28T17:35:02;8.3;;;5.8;;
70942;SDS011;59154;51.970;5.650;2023-01-28T17:40:03;7.4;;;5.7;;
70942;SDS011;59154;51.970;5.650;2023-01-28T17:45:02;7.4;;;5.1;;
70942;SDS011;59154;51.970;5.650;2023-01-28T17:50:03;7.5;;;5.2;;
70942;SDS011;59154;51.970;5.650;2023-01-28T17:55:03;7.3;;;4.8;;
70942;SDS011;59154;51.970;5.650;2023-01-28T18:00:03;8.3;;;5.1;;
70942;SDS011;59154;51.970;5.650;2023-01-28T18:05:03;8.6;;;5.6;;
70942;SDS011;59154;51.970;5.650;2023-01-28T18:10:02;10.6;;;6.3;;
70942;SDS011;59154;51.970;5.650;2023-01-28T18:15:02;8.3;;;5.3;;
70942;SDS011;59154;51.970;5.650;2023-01-28T18:20:03;9.1;;;6.1;;
70942;SDS011;59154;51.970;5.650;2023-01-28T18:25:02;7.5;;;5.3;;
70942;SDS011;59154;51.970;5.650;2023-01-28T18:30:02;8.6;;;5.6;;
70942;SDS011;59154;51.970;5.650;2023-01-28T18:35:02;11.1;;;6.4;;
70942;SDS011;59154;51.970;5.650;2023-01-28T18:40:03;10.2;;;6.6;;
70942;SDS011;59154;51.970;5.650;2023-01-28T18:45:03;9.7;;;6.0;;
70942;SDS011;59154;51.970;5.650;2023-01-28T18:50:03;9.9;;;5.9;;
70942;SDS011;59154;51.970;5.650;2023-01-28T18:55:02;9.9;;;6.6;;
70942;SDS011;59154;51.970;5.650;2023-01-28T19:00:03;10.1;;;6.7;;
70942;SDS011;59154;51.970;5.650;2023-01-28T19:05:02;10.4;;;6.3;;
70942;SDS011;59154;51.970;5.650;2023-01-28T19:10:03;9.2;;;6.2;;
70942;SDS011;59154;51.970;5.650;2023-01-28T19:15:02;10.0;;;7.3;;
70942;SDS011;59154;51.970;5.650;2023-01-28T19:20:03;8.9;;;6.4;;
70942;SDS011;59154;51.970;5.650;2023-01-28T19:25:02;10.1;;;6.6;;
70942;SDS011;59154;51.970;5.650;2023-01-28T19:30:03;9.5;;;6.2;;
70942;SDS011;59154;51.970;5.650;2023-01-28T19:35:02;8.8;;;6.2;;
70942;SDS011;59154;51.970;5.650;2023-01-28T19:40:02;10.1;;;6.8;;
70942;SDS011;59154;51.970;5.650;2023-01-28T19:45:02;12.0;;;7.3;;
70942;SDS011;59154;51.970;5.650;2023-01-28T19:50:03;10.6;;;6.6;;
70942;SDS011;59154;51.970;5.650;2023-01-28T19:55:02;8.5;;;6.1;;
70942;SDS011;59154;51.970;5.650;2023-01-28T20:00:04;9.7;;;7.6;;
70942;SDS011;59154;51.970;5.650;2023-01-28T20:05:02;11.0;;;6.9;;
70942;SDS011;59154;51.970;5.650;2023-01-28T20:10:03;9.9;;;6.7;;
70942;SDS011;59154;51.970;5.650;2023-01-28T20:15:02;10.2;;;7.0;;
70942;SDS011;59154;51.970;5.650;2023-01-28T20:20:03;9.9;;;7.4;;
70942;SDS011;59154;51.970;5.650;2023-01-28T20:25:03;10.5;;;7.1;;
70942;SDS011;59154;51.970;5.650;2023-01-28T20:30:03;10.6;;;6.8;;
70942;SDS011;59154;51.970;5.650;2023-01-28T20:35:02;12.0;;;7.0;;
70942;SDS011;59154;51.970;5.650;2023-01-28T20:40:03;9.3;;;6.5;;
70942;SDS011;59154;51.970;5.650;2023-01-28T20:45:02;11.9;;;7.4;;
70942;SDS011;59154;51.970;5.650;2023-01-28T20:50:02;9.8;;;7.1;;
70942;SDS011;59154;51.970;5.650;2023-01-28T20:55:02;10.1;;;7.0;;
70942;SDS011;59154;51.970;5.650;2023-01-28T21:00:03;10.5;;;7.4;;
70942;SDS011;59154;51.970;5.650;2023-01-28T21:05:02;14.2;;;8.6;;
70942;SDS011;59154;51.970;5.650;2023-01-28T21:10:02;10.5;;;7.4;;
70942;SDS011;59154;51.970;5.650;2023-01-28T21:15:02;9.7;;;6.8;;
70942;SDS011;59154;51.970;5.650;2023-01-28T21:20:03;9.9;;;7.0;;
70942;SDS011;59154;51.970;5.650;2023-01-28T21:25:02;11.2;;;7.3;;
70942;SDS011;59154;51.970;5.650;2023-01-28T21:30:02;11.5;;;7.7;;
70942;SDS011;59154;51.970;5.650;2023-01-28T21:35:02;11.6;;;7.8;;
70942;SDS011;59154;51.970;5.650;2023-01-28T21:40:03;14.3;;;8.0;;
70942;SDS011;59154;51.970;5.650;2023-01-28T21:45:03;12.0;;;7.8;;
70942;SDS011;59154;51.970;5.650;2023-01-28T21:50:03;12.3;;;7.8;;
70942;SDS011;59154;51.970;5.650;2023-01-28T21:55:02;11.6;;;8.2;;
70942;SDS011;59154;51.970;5.650;2023-01-28T22:00:04;13.7;;;7.6;;
70942;SDS011;59154;51.970;5.650;2023-01-28T22:05:03;11.6;;;8.1;;
70942;SDS011;59154;51.970;5.650;2023-01-28T22:10:03;12.1;;;8.0;;
70942;SDS011;59154;51.970;5.650;2023-01-28T22:15:02;13.6;;;8.4;;
70942;SDS011;59154;51.970;5.650;2023-01-28T22:20:03;12.1;;;8.7;;
70942;SDS011;59154;51.970;5.650;2023-01-28T22:25:02;12.4;;;8.3;;
70942;SDS011;59154;51.970;5.650;2023-01-28T22:30:03;12.2;;;8.2;;
70942;SDS011;59154;51.970;5.650;2023-01-28T22:35:02;12.4;;;8.6;;
70942;SDS011;59154;51.970;5.650;2023-01-28T22:40:03;12.9;;;8.8;;
70942;SDS011;59154;51.970;5.650;2023-01-28T22:45:03;12.6;;;8.4;;
70942;SDS011;59154;51.970;5.650;2023-01-28T22:50:02;11.0;;;8.2;;
70942;SDS011;59154;51.970;5.650;2023-01-28T22:55:02;11.6;;;8.0;;
70942;SDS011;59154;51.970;5.650;2023-01-28T23:00:05;13.9;;;9.1;;
70942;SDS011;59154;51.970;5.650;2023-01-28T23:05:02;13.1;;;8.6;;
70942;SDS011;59154;51.970;5.650;2023-01-28T23:10:03;12.4;;;8.5;;
70942;SDS011;59154;51.970;5.650;2023-01-28T23:15:02;12.3;;;8.1;;
70942;SDS011;59154;51.970;5.650;2023-01-28T23:20:03;14.1;;;9.3;;
70942;SDS011;59154;51.970;5.650;2023-01-28T23:25:03;15.8;;;10.2;;
70942;SDS011;59154;51.970;5.650;2023-01-28T23:30:03;13.2;;;8.9;;
70942;SDS011;59154;51.970;5.650;2023-01-28T23:35:02;12.3;;;9.2;;
70942;SDS011;59154;51.970;5.650;2023-01-28T23:40:04;12.5;;;9.1;;
70942;SDS011;59154;51.970;5.650;2023-01-28T23:45:03;13.9;;;9.7;;
70942;SDS011;59154;51.970;5.650;2023-01-28T23:50:03;14.0;;;9.6;;
70942;SDS011;59154;51.970;5.650;2023-01-28T23:55:02;17.4;;;9.4;;
